Impacts METAR Board
IDs:

KIAH - Houston/Bush Intl, TX, US

Updated at: 2100 UTC 20 Jun 2019
Potential Impact None Slight Moderate High
Time 20/09Z 20/10Z 20/11Z 20/12Z 20/13Z 20/14Z 20/15Z 20/16Z 20/17Z 20/18Z 20/19Z 20/20Z 20/21Z
Temp79 80 79 81 82 84 86 88 91 92 93 92 92
Dewpt76 78 78 79 79 79 79 79 79 78 78 77 78
Altim29.83 29.82 29.84 29.87 29.92 29.88 29.85 29.85 29.85 29.85 29.83 29.83 29.83
VIS10 10 8 8 7 10 10 10 10 10 10 10 10
CIG250 250 250 190 180 250 250 250 250 250 250 250 250
CoverBKNBKNBKNBKNBKNBKNOVCOVCBKNBKNOVCOVCBKN
FltCatVFRVFRVFRVFRVFRVFRVFRVFRVFRVFRVFRVFRVFR
WX--------------------------
WDir1301601600330170170190200180170200190
WSpd5 8 5 0 4 4 11 8 7 9 8 8 9
WGst-- -- -- -- -- -- 18 -- -- -- -- -- --
Raw hourly METARs
KIAH 200853Z 13005KT 10SM FEW020 BKN250 26/24 A2983 RMK AO2 SLP098 60000 T02610244 58002
KIAH 200953Z 16008KT 10SM FEW020 SCT180 BKN250 27/26 A2982 RMK AO2 SLP097 T02670256
KIAH 201053Z 16005KT 8SM FEW020 SCT180 BKN250 26/26 A2984 RMK AO2 SLP103 T02610256
KIAH 201153Z 00000KT 8SM FEW020 BKN190 BKN250 27/26 A2987 RMK AO2 SLP114 60000 T02720261 10283 20256 53016
KIAH 201253Z 33004KT 7SM SCT013 BKN180 BKN250 28/26 A2992 RMK AO2 SLP129 T02780261
KIAH 201353Z 17004KT 10SM SCT015 SCT180 BKN250 29/26 A2988 RMK AO2 SLP117 T02890261
KIAH 201453Z 17011G18KT 10SM SCT018 SCT180 OVC250 30/26 A2985 RMK AO2 SLP107 T03000261 58006
KIAH 201553Z 19008KT 10SM FEW021 SCT180 OVC250 31/26 A2985 RMK AO2 SLP107 T03110261
KIAH 201653Z 20007KT 10SM SCT030 SCT180 BKN250 33/26 A2985 RMK AO2 SLP107 T03280261
KIAH 201753Z 18009KT 10SM SCT033 SCT180 BKN250 33/26 A2985 RMK AO2 SLP105 T03330256 10333 20267 58002
KIAH 201853Z 17008KT 10SM FEW036 SCT180 OVC250 34/26 A2983 RMK AO2 SLP101 T03390256
KIAH 201953Z 20008KT 10SM SCT040 SCT180 OVC250 33/25 A2983 RMK AO2 SLP100 T03330250
KIAH 202053Z 19009KT 10SM SCT040 SCT180 BKN250 33/26 A2983 RMK AO2 SLP099 T03330256 56006



Page loaded:  21:06 UTC  |   02:06 PM Pacific  |   03:06 PM Mountain  |   04:06 PM Central  |   05:06 PM Eastern

 

ADVISORIES

FORECASTS

FORECASTS

OBSERVATIONS

USER TOOLS

ABOUT US